Time;durP1;ratioP1;P1;durP2;ratioP2;P2;SDS_P1;SDS_P2;PMS_P1;PMS_P2;Temp;Humidity;BMP_temperature;BMP_pressure;BME280_temperature;BME280_humidity;BME280_pressure;Samples;Min_cycle;Max_cycle;Signal;HPM_P1;HPM_P2
2021/06/06 00:01:39;;;;;;;;;;;17.30;99.90;;;;;;4945979;29;20303;-66
2021/06/06 00:04:10;;;;;;;;;;;17.40;99.90;;;;;;4952498;28;20391;-66
2021/06/06 00:06:38;;;;;;;;;;;17.30;99.90;;;;;;4951386;28;19977;-65
2021/06/06 00:09:07;;;;;;;;;;;17.40;99.90;;;;;;4953980;28;20379;-66
2021/06/06 00:11:39;;;;;;;;;;;17.40;99.90;;;;;;4952066;29;19926;-66
2021/06/06 00:14:08;;;;;;;;;;;17.30;99.90;;;;;;4951320;28;19933;-65
2021/06/06 00:16:39;;;;;;;;;;;17.30;99.90;;;;;;4946537;28;19926;-66
2021/06/06 00:19:07;;;;;;;;;;;17.30;99.90;;;;;;4952628;28;19932;-66
2021/06/06 00:21:36;;;;;;;;;;;17.30;99.90;;;;;;4952015;28;20053;-66
2021/06/06 00:24:04;;;;;;;;;;;17.30;99.90;;;;;;4952722;29;19960;-65
2021/06/06 00:26:32;;;;;;;;;;;17.30;99.90;;;;;;4950164;28;20268;-66
2021/06/06 00:29:01;;;;;;;;;;;17.20;99.90;;;;;;4952198;29;19954;-66
2021/06/06 00:31:29;;;;;;;;;;;17.20;99.90;;;;;;4946977;28;19933;-65
2021/06/06 00:33:58;;;;;;;;;;;17.10;99.90;;;;;;4952943;29;19927;-66
2021/06/06 00:36:26;;;;;;;;;;;17.20;99.90;;;;;;4951155;28;19941;-66
2021/06/06 00:38:55;;;;;;;;;;;17.10;99.90;;;;;;4955920;29;19968;-66
2021/06/06 00:41:25;;;;;;;;;;;17.20;99.90;;;;;;4954389;28;20025;-65
2021/06/06 00:43:57;;;;;;;;;;;17.20;99.90;;;;;;4953635;28;20335;-65
2021/06/06 00:46:27;;;;;;;;;;;17.20;99.90;;;;;;4956979;29;19934;-69
2021/06/06 00:48:55;;;;;;;;;;;17.20;99.90;;;;;;4952414;28;19927;-66
2021/06/06 00:51:28;;;;;;;;;;;17.30;99.90;;;;;;4941071;29;19926;-65
2021/06/06 00:54:00;;;;;;;;;;;17.30;99.90;;;;;;4936260;29;19927;-66
2021/06/06 00:56:29;;;;;;;;;;;17.30;99.90;;;;;;4956630;29;19926;-65
2021/06/06 00:59:00;;;;;;;;;;;17.30;99.90;;;;;;4957540;28;19927;-68
2021/06/06 01:01:31;;;;;;;;;;;17.30;99.90;;;;;;4936438;29;19930;-66
2021/06/06 01:04:00;;;;;;;;;;;17.30;99.90;;;;;;4962055;28;19950;-66
2021/06/06 01:06:32;;;;;;;;;;;17.30;99.90;;;;;;4963895;28;19977;-66
2021/06/06 01:09:01;;;;;;;;;;;17.30;99.90;;;;;;4940430;29;19926;-66
2021/06/06 01:11:35;;;;;;;;;;;17.20;99.90;;;;;;4957964;28;19942;-65
2021/06/06 01:14:06;;;;;;;;;;;17.30;99.90;;;;;;4938365;29;19957;-66
2021/06/06 01:16:36;;;;;;;;;;;17.20;99.90;;;;;;4936730;29;19926;-65
2021/06/06 01:19:07;;;;;;;;;;;17.20;99.90;;;;;;4955347;29;19926;-66
2021/06/06 01:21:49;;;;;;;;;;;17.30;99.90;;;;;;4951916;28;20018;-66
2021/06/06 01:24:24;;;;;;;;;;;17.30;99.90;;;;;;4954060;28;19931;-66
2021/06/06 01:26:55;;;;;;;;;;;17.30;99.90;;;;;;4954349;28;19973;-66
2021/06/06 01:29:33;;;;;;;;;;;17.30;99.90;;;;;;4937232;29;19934;-66
2021/06/06 01:32:02;;;;;;;;;;;17.30;99.90;;;;;;4933082;29;19926;-65
2021/06/06 01:34:32;;;;;;;;;;;17.30;99.90;;;;;;4940727;28;19966;-66
2021/06/06 01:37:03;;;;;;;;;;;17.30;99.90;;;;;;4940327;29;19938;-66
2021/06/06 01:39:33;;;;;;;;;;;17.30;99.90;;;;;;4958867;28;20558;-66
2021/06/06 01:42:05;;;;;;;;;;;17.30;99.90;;;;;;4959736;28;19927;-65
2021/06/06 01:44:35;;;;;;;;;;;17.30;99.90;;;;;;4940060;28;19935;-66
2021/06/06 01:47:05;;;;;;;;;;;17.30;99.90;;;;;;4948580;28;19926;-66
2021/06/06 01:49:35;;;;;;;;;;;17.30;99.90;;;;;;4958279;29;20024;-66
2021/06/06 01:52:03;;;;;;;;;;;17.40;99.90;;;;;;4960591;29;19930;-66
2021/06/06 01:54:36;;;;;;;;;;;17.40;99.90;;;;;;4943027;29;19933;-65
2021/06/06 01:57:08;;;;;;;;;;;17.40;99.90;;;;;;4960944;29;19927;-66
2021/06/06 01:59:38;;;;;;;;;;;17.40;99.90;;;;;;4941815;29;20013;-65
2021/06/06 02:02:06;;;;;;;;;;;17.40;99.90;;;;;;4955989;28;19930;-66
2021/06/06 02:04:35;;;;;;;;;;;17.40;99.90;;;;;;4959567;28;19950;-65
2021/06/06 02:07:05;;;;;;;;;;;17.50;99.90;;;;;;4944850;29;20284;-66
2021/06/06 02:09:41;;;;;;;;;;;17.50;99.90;;;;;;4938994;29;20398;-65
2021/06/06 02:12:27;;;;;;;;;;;17.50;99.90;;;;;;4939444;29;19934;-65
2021/06/06 02:15:04;;;;;;;;;;;17.50;99.90;;;;;;4950253;29;19926;-66
2021/06/06 02:17:37;;;;;;;;;;;17.50;99.90;;;;;;4943591;29;19926;-65
2021/06/06 02:20:43;;;;;;;;;;;17.50;99.90;;;;;;4958441;28;19937;-66
2021/06/06 02:23:24;;;;;;;;;;;17.50;99.90;;;;;;4957315;29;19938;-65
2021/06/06 02:25:59;;;;;;;;;;;17.50;99.90;;;;;;4956278;29;19931;-65
2021/06/06 02:28:40;;;;;;;;;;;17.50;99.90;;;;;;4938899;29;19933;-65
2021/06/06 02:31:12;;;;;;;;;;;17.40;99.90;;;;;;4938272;29;19927;-65
2021/06/06 02:33:48;;;;;;;;;;;17.50;99.90;;;;;;4956815;29;19926;-66
2021/06/06 02:36:34;;;;;;;;;;;17.50;99.90;;;;;;4940124;29;20436;-65
2021/06/06 02:39:08;;;;;;;;;;;17.50;99.90;;;;;;4940126;29;19937;-66
2021/06/06 02:41:43;;;;;;;;;;;17.50;99.90;;;;;;4943212;29;19941;-66
2021/06/06 02:44:12;;;;;;;;;;;17.50;99.90;;;;;;4957321;29;19934;-66
2021/06/06 02:46:47;;;;;;;;;;;17.50;99.90;;;;;;4934044;29;20417;-66
2021/06/06 02:49:28;;;;;;;;;;;17.50;99.90;;;;;;4956511;29;19942;-66
2021/06/06 02:52:00;;;;;;;;;;;17.50;99.90;;;;;;4940823;29;19927;-66
2021/06/06 02:54:38;;;;;;;;;;;17.50;99.90;;;;;;4939770;29;19950;-66
2021/06/06 02:57:17;;;;;;;;;;;17.50;99.90;;;;;;4941769;29;20291;-66
2021/06/06 02:59:51;;;;;;;;;;;17.50;99.90;;;;;;4939528;29;19930;-66
2021/06/06 03:02:23;;;;;;;;;;;17.50;99.90;;;;;;4933617;29;20298;-69
2021/06/06 03:04:52;;;;;;;;;;;17.50;99.90;;;;;;4956553;29;20393;-65
2021/06/06 03:07:24;;;;;;;;;;;17.50;99.90;;;;;;4945514;29;19926;-66
2021/06/06 03:09:53;;;;;;;;;;;17.50;99.90;;;;;;4939503;29;19931;-65
2021/06/06 03:12:25;;;;;;;;;;;17.50;99.90;;;;;;4955683;29;19927;-66
2021/06/06 03:14:56;;;;;;;;;;;17.50;99.90;;;;;;4939432;29;19926;-64
2021/06/06 03:17:31;;;;;;;;;;;17.50;99.90;;;;;;4955543;29;19949;-64
2021/06/06 03:20:04;;;;;;;;;;;17.40;99.90;;;;;;4937209;29;19950;-65
2021/06/06 03:22:40;;;;;;;;;;;17.40;99.90;;;;;;4938465;29;19989;-65
2021/06/06 03:25:13;;;;;;;;;;;17.40;99.90;;;;;;4942614;29;20399;-65
2021/06/06 03:28:08;;;;;;;;;;;17.40;99.90;;;;;;4956561;29;20065;-65
2021/06/06 03:30:40;;;;;;;;;;;17.40;99.90;;;;;;4945986;29;19927;-65
2021/06/06 03:33:16;;;;;;;;;;;17.40;99.90;;;;;;4942617;29;20027;-65
2021/06/06 03:35:44;;;;;;;;;;;17.40;99.90;;;;;;4956267;29;19954;-65
2021/06/06 03:38:15;;;;;;;;;;;17.40;99.90;;;;;;4954743;28;19927;-64
2021/06/06 03:40:44;;;;;;;;;;;17.40;99.90;;;;;;4956323;29;19930;-65
2021/06/06 03:43:26;;;;;;;;;;;17.40;99.90;;;;;;4955393;28;19938;-64
2021/06/06 03:45:54;;;;;;;;;;;17.40;99.90;;;;;;4933413;29;19926;-67
2021/06/06 03:48:22;;;;;;;;;;;17.40;99.90;;;;;;4954688;28;19930;-65
2021/06/06 03:50:51;;;;;;;;;;;17.50;99.90;;;;;;4950018;28;19941;-64
2021/06/06 03:53:23;;;;;;;;;;;17.50;99.90;;;;;;4947887;28;19942;-65
2021/06/06 03:55:53;;;;;;;;;;;17.50;99.90;;;;;;4952356;28;19998;-64
2021/06/06 03:58:22;;;;;;;;;;;17.50;99.90;;;;;;4950627;28;20303;-69
2021/06/06 04:00:52;;;;;;;;;;;17.50;99.90;;;;;;4947342;28;19926;-64
2021/06/06 04:03:20;;;;;;;;;;;17.50;99.90;;;;;;4947532;28;19950;-65
2021/06/06 04:05:49;;;;;;;;;;;17.50;99.90;;;;;;4948644;28;19930;-64
2021/06/06 04:08:27;;;;;;;;;;;17.50;99.90;;;;;;4934887;29;19935;-65
2021/06/06 04:11:05;;;;;;;;;;;17.50;99.90;;;;;;4950244;28;19930;-65
2021/06/06 04:13:35;;;;;;;;;;;17.50;99.90;;;;;;4951129;28;19935;-65
2021/06/06 04:16:06;;;;;;;;;;;17.50;99.90;;;;;;4945665;28;19950;-65
2021/06/06 04:18:35;;;;;;;;;;;17.50;99.90;;;;;;4933207;29;20017;-65
2021/06/06 04:21:05;;;;;;;;;;;17.50;99.90;;;;;;4934032;28;20027;-65
2021/06/06 04:23:35;;;;;;;;;;;17.50;99.90;;;;;;4953163;28;19927;-64
2021/06/06 04:26:05;;;;;;;;;;;17.60;99.90;;;;;;4952013;28;20017;-65
2021/06/06 04:28:37;;;;;;;;;;;17.60;99.90;;;;;;4950634;28;19962;-67
2021/06/06 04:31:16;;;;;;;;;;;17.60;99.90;;;;;;4947767;28;19927;-64
2021/06/06 04:33:47;;;;;;;;;;;17.60;99.90;;;;;;4952061;28;19926;-64
2021/06/06 04:36:49;;;;;;;;;;;17.70;99.90;;;;;;4956126;28;19926;-66
2021/06/06 04:39:20;;;;;;;;;;;17.70;99.90;;;;;;4957533;29;19927;-64
2021/06/06 04:41:48;;;;;;;;;;;17.60;99.90;;;;;;4957690;29;19930;-64
2021/06/06 04:44:15;;;;;;;;;;;17.70;99.90;;;;;;4940738;29;19961;-64
2021/06/06 04:46:48;;;;;;;;;;;17.70;99.90;;;;;;4955001;29;19926;-65
2021/06/06 04:49:18;;;;;;;;;;;17.70;99.90;;;;;;4956804;29;19926;-65
2021/06/06 04:51:49;;;;;;;;;;;17.70;99.90;;;;;;4955400;29;19930;-64
2021/06/06 04:54:27;;;;;;;;;;;17.80;99.90;;;;;;4957613;29;20385;-63
2021/06/06 04:56:55;;;;;;;;;;;17.80;99.90;;;;;;4956541;28;19942;-64
2021/06/06 04:59:28;;;;;;;;;;;17.80;99.90;;;;;;4952410;28;20228;-65
2021/06/06 05:01:57;;;;;;;;;;;17.90;99.90;;;;;;4947238;28;20331;-65
2021/06/06 05:04:25;;;;;;;;;;;18.00;99.90;;;;;;4953187;28;19977;-69
2021/06/06 05:06:54;;;;;;;;;;;18.00;99.90;;;;;;4954112;28;20389;-65
2021/06/06 05:09:23;;;;;;;;;;;18.00;99.90;;;;;;4938238;29;19938;-66
2021/06/06 05:12:01;;;;;;;;;;;17.90;99.90;;;;;;4953876;28;19935;-65
2021/06/06 05:14:30;;;;;;;;;;;17.90;99.90;;;;;;4952517;28;19934;-66
2021/06/06 05:17:03;;;;;;;;;;;17.90;99.90;;;;;;4947127;28;20053;-65
2021/06/06 05:19:38;;;;;;;;;;;17.80;99.90;;;;;;4941391;28;19937;-65
2021/06/06 05:22:08;;;;;;;;;;;17.80;99.90;;;;;;4952543;28;20017;-65
2021/06/06 05:24:37;;;;;;;;;;;17.70;99.90;;;;;;4936955;29;19926;-65
2021/06/06 05:27:06;;;;;;;;;;;17.70;99.90;;;;;;4955781;28;19934;-65
2021/06/06 05:29:33;;;;;;;;;;;17.60;99.90;;;;;;4954010;28;19927;-66
2021/06/06 05:32:03;;;;;;;;;;;17.60;99.90;;;;;;4949447;28;19932;-65
2021/06/06 05:34:31;;;;;;;;;;;17.60;99.90;;;;;;4955563;28;20406;-66
2021/06/06 05:36:59;;;;;;;;;;;17.70;99.90;;;;;;4955811;29;19941;-65
2021/06/06 05:39:27;;;;;;;;;;;17.70;99.90;;;;;;4958568;28;19926;-65
2021/06/06 05:41:55;;;;;;;;;;;17.70;99.90;;;;;;4957449;29;19930;-66
2021/06/06 05:44:23;;;;;;;;;;;17.70;99.90;;;;;;4959067;29;20126;-65
2021/06/06 05:46:52;;;;;;;;;;;17.80;99.90;;;;;;4950018;28;19930;-65
2021/06/06 05:49:21;;;;;;;;;;;17.80;99.90;;;;;;4956755;29;20387;-65
2021/06/06 05:51:59;;;;;;;;;;;17.90;99.90;;;;;;4960237;28;19926;-65
2021/06/06 05:54:27;;;;;;;;;;;17.90;99.90;;;;;;4958341;29;20377;-65
2021/06/06 05:56:55;;;;;;;;;;;18.00;99.90;;;;;;4956094;29;19927;-65
2021/06/06 05:59:22;;;;;;;;;;;18.20;99.90;;;;;;4958499;29;19930;-66
2021/06/06 06:01:50;;;;;;;;;;;18.20;99.90;;;;;;4952654;28;19933;-65
2021/06/06 06:04:18;;;;;;;;;;;18.30;99.90;;;;;;4957725;29;19926;-65
2021/06/06 06:06:49;;;;;;;;;;;18.30;99.90;;;;;;4958255;29;19934;-65
2021/06/06 06:09:17;;;;;;;;;;;18.30;99.90;;;;;;4940134;29;19926;-65
2021/06/06 06:11:45;;;;;;;;;;;18.20;99.90;;;;;;4957496;29;19973;-65
2021/06/06 06:14:13;;;;;;;;;;;18.20;99.90;;;;;;4956945;29;19937;-65
2021/06/06 06:16:41;;;;;;;;;;;18.20;99.90;;;;;;4951285;29;19927;-65
2021/06/06 06:19:10;;;;;;;;;;;18.20;99.90;;;;;;4957028;29;19927;-65
2021/06/06 06:21:39;;;;;;;;;;;18.30;99.90;;;;;;4956902;29;20394;-65
2021/06/06 06:24:08;;;;;;;;;;;18.30;99.90;;;;;;4957090;29;19952;-65
2021/06/06 06:26:37;;;;;;;;;;;18.30;99.90;;;;;;4956997;29;19926;-66
2021/06/06 06:29:12;;;;;;;;;;;18.40;99.90;;;;;;4956870;29;19965;-65
2021/06/06 06:31:43;;;;;;;;;;;18.50;99.90;;;;;;4949832;29;19937;-66
2021/06/06 06:34:18;;;;;;;;;;;18.60;99.90;;;;;;4942440;29;19938;-65
2021/06/06 06:36:47;;;;;;;;;;;18.60;99.90;;;;;;4958668;29;19933;-65
2021/06/06 06:39:16;;;;;;;;;;;18.50;99.90;;;;;;4956595;29;19927;-65
2021/06/06 06:41:44;;;;;;;;;;;18.40;99.90;;;;;;4956446;29;20349;-68
2021/06/06 06:44:11;;;;;;;;;;;18.30;99.90;;;;;;4957376;29;20006;-65
2021/06/06 06:46:46;;;;;;;;;;;18.40;99.90;;;;;;4952468;28;19982;-65
2021/06/06 06:49:14;;;;;;;;;;;18.40;99.90;;;;;;4959676;29;19934;-65
2021/06/06 06:51:42;;;;;;;;;;;18.40;99.90;;;;;;4959341;29;20355;-65
2021/06/06 06:54:10;;;;;;;;;;;18.50;99.90;;;;;;4957881;29;19926;-65
2021/06/06 06:56:39;;;;;;;;;;;18.60;99.90;;;;;;4952232;28;19933;-64
2021/06/06 06:59:06;;;;;;;;;;;18.60;99.90;;;;;;4936103;29;20017;-65
2021/06/06 07:01:34;;;;;;;;;;;18.60;99.90;;;;;;4951361;29;19994;-64
2021/06/06 07:04:02;;;;;;;;;;;18.50;99.90;;;;;;4957623;29;20030;-64
2021/06/06 07:06:33;;;;;;;;;;;18.50;99.90;;;;;;4958375;29;20302;-66
2021/06/06 07:09:01;;;;;;;;;;;18.40;99.90;;;;;;4942437;29;20271;-64
2021/06/06 07:11:32;;;;;;;;;;;18.30;99.90;;;;;;4963310;29;19926;-64
2021/06/06 07:14:01;;;;;;;;;;;18.40;99.90;;;;;;4962868;29;20013;-64
2021/06/06 07:16:29;;;;;;;;;;;18.50;99.90;;;;;;4956126;29;19926;-64
2021/06/06 07:18:57;;;;;;;;;;;18.40;99.90;;;;;;4962907;29;19930;-64
2021/06/06 07:21:25;;;;;;;;;;;18.50;99.90;;;;;;4962867;29;20374;-65
2021/06/06 07:23:53;;;;;;;;;;;18.60;99.90;;;;;;4960868;29;19927;-65
2021/06/06 07:26:23;;;;;;;;;;;18.90;99.90;;;;;;4960009;28;19950;-65
2021/06/06 07:31:48;;;;;;;;;;;19.60;99.90;;;;;;4954990;29;19931;-66
2021/06/06 07:34:16;;;;;;;;;;;20.20;99.90;;;;;;4960805;29;20362;-66
2021/06/06 07:36:45;;;;;;;;;;;20.40;99.90;;;;;;4961872;29;19930;-66
2021/06/06 07:39:13;;;;;;;;;;;20.50;99.90;;;;;;4960361;28;19930;-66
2021/06/06 07:41:42;;;;;;;;;;;20.60;99.90;;;;;;4959407;28;19962;-64
2021/06/06 07:44:09;;;;;;;;;;;20.40;99.90;;;;;;4959859;29;19934;-64
2021/06/06 07:49:31;;;;;;;;;;;20.20;99.90;;;;;;4957901;29;19934;-69
2021/06/06 07:51:59;;;;;;;;;;;20.10;99.90;;;;;;4959809;29;19926;-67
2021/06/06 07:54:26;;;;;;;;;;;20.00;99.90;;;;;;4960705;28;19927;-64
2021/06/06 07:56:57;;;;;;;;;;;20.20;99.90;;;;;;4959703;29;20041;-65
2021/06/06 07:59:25;;;;;;;;;;;20.10;99.90;;;;;;4961049;29;20338;-64
2021/06/06 08:01:54;;;;;;;;;;;20.10;99.90;;;;;;4952615;29;19949;-69
2021/06/06 08:04:22;;;;;;;;;;;20.00;99.90;;;;;;4961354;29;19926;-65
2021/06/06 08:06:52;;;;;;;;;;;19.90;99.90;;;;;;4960509;29;19926;-64
2021/06/06 08:09:20;;;;;;;;;;;19.80;99.90;;;;;;4959208;28;19933;-64
2021/06/06 08:11:48;;;;;;;;;;;19.90;99.90;;;;;;4960072;29;20312;-64
2021/06/06 08:14:16;;;;;;;;;;;19.90;99.90;;;;;;4909597;28;19931;-64
2021/06/06 08:16:45;;;;;;;;;;;19.80;99.90;;;;;;4954471;29;19977;-65
2021/06/06 08:19:13;;;;;;;;;;;19.80;99.90;;;;;;4960321;29;19942;-64
2021/06/06 08:21:44;;;;;;;;;;;20.10;99.90;;;;;;4960336;29;19985;-65
2021/06/06 08:24:14;;;;;;;;;;;21.60;99.90;;;;;;4957999;29;19930;-65
2021/06/06 08:26:45;;;;;;;;;;;23.40;99.90;;;;;;4959504;29;19927;-70
2021/06/06 08:29:13;;;;;;;;;;;23.60;99.90;;;;;;4959001;29;20354;-65
2021/06/06 08:31:41;;;;;;;;;;;23.10;99.90;;;;;;4954116;29;19965;-65
2021/06/06 08:34:10;;;;;;;;;;;22.50;99.90;;;;;;4959643;29;19989;-64
2021/06/06 08:36:40;;;;;;;;;;;22.00;99.90;;;;;;4958984;29;19926;-68
2021/06/06 08:39:10;;;;;;;;;;;22.70;99.90;;;;;;4959283;29;19927;-64
2021/06/06 08:41:47;;;;;;;;;;;24.40;99.90;;;;;;4946877;29;19928;-64
2021/06/06 08:44:16;;;;;;;;;;;25.40;99.90;;;;;;4956277;29;19927;-63
2021/06/06 08:46:57;;;;;;;;;;;25.20;99.90;;;;;;4986201;23;19933;-63
2021/06/06 08:49:26;;;;;;;;;;;25.60;99.90;;;;;;4981033;28;19926;-61
2021/06/06 08:52:02;;;;;;;;;;;24.90;99.90;;;;;;4976443;28;20037;-62
2021/06/06 08:54:34;;;;;;;;;;;25.80;99.90;;;;;;4978934;28;19926;-62
2021/06/06 08:57:05;;;;;;;;;;;24.50;99.90;;;;;;4979253;28;19940;-62
2021/06/06 08:59:37;;;;;;;;;;;23.30;99.90;;;;;;4970483;28;19926;-62
2021/06/06 09:02:08;;;;;;;;;;;23.00;99.90;;;;;;4968847;28;19932;-62
2021/06/06 09:04:36;;;;;;;;;;;22.10;99.90;;;;;;4976831;28;20094;-62
2021/06/06 09:07:06;;;;;;;;;;;21.90;99.90;;;;;;4974762;28;20378;-62
2021/06/06 09:09:36;;;;;;;;;;;21.70;99.90;;;;;;4985126;28;19954;-61
2021/06/06 09:12:06;;;;;;;;;;;21.50;99.90;;;;;;4981796;28;19961;-62
2021/06/06 09:14:34;;;;;;;;;;;21.20;99.90;;;;;;4972178;28;19926;-62
2021/06/06 09:17:03;;;;;;;;;;;21.20;99.90;;;;;;4965868;28;20452;-62
2021/06/06 09:19:39;;;;;;;;;;;20.90;99.90;;;;;;4972473;28;19927;-61
2021/06/06 09:22:07;;;;;;;;;;;20.50;99.90;;;;;;4973730;28;20287;-62
2021/06/06 09:24:38;;;;;;;;;;;20.40;99.90;;;;;;4971958;28;19934;-61
2021/06/06 09:27:08;;;;;;;;;;;20.40;99.90;;;;;;4972490;28;19927;-62
2021/06/06 09:29:37;;;;;;;;;;;20.30;99.90;;;;;;4973387;28;20734;-61
2021/06/06 09:32:06;;;;;;;;;;;20.50;99.90;;;;;;4966170;28;19933;-62
2021/06/06 09:34:34;;;;;;;;;;;21.30;99.90;;;;;;4973631;28;19973;-62
2021/06/06 09:37:08;;;;;;;;;;;21.60;99.90;;;;;;4973623;28;20182;-62
2021/06/06 09:40:02;;;;;;;;;;;21.90;99.90;;;;;;4975033;28;19933;-61
2021/06/06 09:42:35;;;;;;;;;;;21.40;99.90;;;;;;4974146;28;19933;-62
2021/06/06 09:45:06;;;;;;;;;;;20.90;99.90;;;;;;4965422;28;19926;-60
2021/06/06 09:47:34;;;;;;;;;;;20.50;99.90;;;;;;4972309;28;19926;-62
2021/06/06 09:50:05;;;;;;;;;;;20.20;99.90;;;;;;4973509;28;20342;-61
2021/06/06 09:52:41;;;;;;;;;;;20.10;99.90;;;;;;4969116;28;19926;-61
2021/06/06 09:55:16;;;;;;;;;;;20.10;99.90;;;;;;4970753;28;19941;-61
2021/06/06 09:57:45;;;;;;;;;;;20.10;99.90;;;;;;4972202;28;19961;-61
2021/06/06 10:00:15;;;;;;;;;;;20.10;99.90;;;;;;4967562;28;19934;-61
2021/06/06 10:02:45;;;;;;;;;;;20.10;99.90;;;;;;4970251;28;19985;-61
2021/06/06 10:05:14;;;;;;;;;;;20.10;99.90;;;;;;4968380;28;19930;-62
2021/06/06 10:07:52;;;;;;;;;;;20.30;99.90;;;;;;4970751;28;19984;-62
2021/06/06 10:10:24;;;;;;;;;;;20.70;99.90;;;;;;4970523;28;20393;-62
2021/06/06 10:12:54;;;;;;;;;;;21.10;99.90;;;;;;4971085;28;20400;-62
2021/06/06 10:15:34;;;;;;;;;;;21.80;99.90;;;;;;4965579;28;19926;-62
2021/06/06 10:18:06;;;;;;;;;;;22.40;99.90;;;;;;4969356;28;20413;-62
2021/06/06 10:20:34;;;;;;;;;;;23.50;99.90;;;;;;4972972;28;20054;-62
2021/06/06 10:23:04;;;;;;;;;;;26.00;99.90;;;;;;4973803;28;19930;-65
2021/06/06 10:25:39;;;;;;;;;;;27.50;99.90;;;;;;4973546;28;20421;-62
2021/06/06 10:28:09;;;;;;;;;;;28.00;99.80;;;;;;4970757;28;20366;-62
2021/06/06 10:30:40;;;;;;;;;;;27.80;99.50;;;;;;4966328;28;19926;-62
2021/06/06 10:33:13;;;;;;;;;;;27.00;99.40;;;;;;4972526;28;19940;-65
2021/06/06 10:35:41;;;;;;;;;;;26.70;99.90;;;;;;4972053;28;19973;-62
2021/06/06 10:38:09;;;;;;;;;;;25.90;99.90;;;;;;4972241;28;19926;-62
2021/06/06 10:40:39;;;;;;;;;;;25.00;99.90;;;;;;4973361;28;19926;-62
2021/06/06 10:43:10;;;;;;;;;;;24.30;99.90;;;;;;4968588;28;20352;-62
2021/06/06 10:45:40;;;;;;;;;;;24.10;99.90;;;;;;4963499;28;19940;-62
2021/06/06 10:48:11;;;;;;;;;;;23.90;99.90;;;;;;4969817;28;19973;-62
2021/06/06 10:50:41;;;;;;;;;;;23.70;99.90;;;;;;4968727;28;19934;-62
2021/06/06 10:53:11;;;;;;;;;;;23.70;99.90;;;;;;4967391;28;19999;-62
2021/06/06 10:55:50;;;;;;;;;;;23.60;99.90;;;;;;4966389;28;20341;-62
2021/06/06 10:58:28;;;;;;;;;;;23.00;99.90;;;;;;4973084;28;20381;-62
2021/06/06 11:00:57;;;;;;;;;;;22.40;99.90;;;;;;4964242;28;19973;-62
2021/06/06 11:03:27;;;;;;;;;;;22.10;99.90;;;;;;4973854;28;19976;-62
2021/06/06 11:05:57;;;;;;;;;;;21.60;99.90;;;;;;4971103;28;20012;-62
2021/06/06 11:08:39;;;;;;;;;;;21.50;99.90;;;;;;4968671;28;19930;-63
2021/06/06 11:11:14;;;;;;;;;;;21.30;99.90;;;;;;4972691;28;20013;-63
2021/06/06 11:13:44;;;;;;;;;;;20.80;99.90;;;;;;4968628;28;19945;-60
2021/06/06 11:16:22;;;;;;;;;;;20.40;99.90;;;;;;4959151;28;19938;-60
2021/06/06 11:18:51;;;;;;;;;;;20.50;99.90;;;;;;4972375;28;19926;-61
2021/06/06 11:21:29;;;;;;;;;;;20.50;99.90;;;;;;4971465;28;19934;-62
2021/06/06 11:23:58;;;;;;;;;;;20.60;99.90;;;;;;4969516;28;19926;-61
2021/06/06 11:26:35;;;;;;;;;;;20.70;99.90;;;;;;4967284;28;20090;-61
2021/06/06 11:29:40;;;;;;;;;;;20.80;99.90;;;;;;4966405;28;23964;-62
2021/06/06 11:32:17;;;;;;;;;;;21.00;99.90;;;;;;4961572;28;20179;-61
2021/06/06 11:35:05;;;;;;;;;;;21.30;99.90;;;;;;4965608;28;19926;-62
2021/06/06 11:37:37;;;;;;;;;;;21.50;99.90;;;;;;4968090;28;19930;-62
2021/06/06 11:40:08;;;;;;;;;;;21.60;99.90;;;;;;4949695;28;19933;-61
2021/06/06 11:42:37;;;;;;;;;;;21.70;99.90;;;;;;4967248;28;19926;-62
2021/06/06 11:45:31;;;;;;;;;;;21.90;99.90;;;;;;4961053;28;19965;-61
2021/06/06 11:48:02;;;;;;;;;;;22.10;99.90;;;;;;4968049;28;20293;-61
2021/06/06 11:50:34;;;;;;;;;;;22.30;99.90;;;;;;4971886;28;19926;-62
2021/06/06 11:53:03;;;;;;;;;;;22.80;99.90;;;;;;4971502;28;19926;-62
2021/06/06 11:55:32;;;;;;;;;;;22.60;99.90;;;;;;4972281;28;19926;-63
2021/06/06 11:58:07;;;;;;;;;;;22.90;99.90;;;;;;4970534;28;19926;-61
2021/06/06 12:00:37;;;;;;;;;;;23.20;99.90;;;;;;4974381;28;19933;-63
2021/06/06 12:03:11;;;;;;;;;;;23.30;99.90;;;;;;4985453;28;19977;-61
2021/06/06 12:05:38;;;;;;;;;;;23.10;99.90;;;;;;4972942;28;20402;-62
2021/06/06 12:08:10;;;;;;;;;;;23.00;99.90;;;;;;4971701;28;19926;-62
2021/06/06 12:10:40;;;;;;;;;;;22.70;99.90;;;;;;4972102;28;19926;-62
2021/06/06 12:13:08;;;;;;;;;;;22.30;99.90;;;;;;4971391;28;19981;-61
2021/06/06 12:15:41;;;;;;;;;;;22.10;99.90;;;;;;4946259;28;19926;-61
2021/06/06 12:18:14;;;;;;;;;;;22.20;99.90;;;;;;4969934;28;19926;-62
2021/06/06 12:20:54;;;;;;;;;;;21.80;99.90;;;;;;4966455;28;19965;-62
2021/06/06 12:23:25;;;;;;;;;;;22.20;99.90;;;;;;4968973;28;19940;-62
2021/06/06 12:25:55;;;;;;;;;;;22.60;99.90;;;;;;4971367;28;19926;-61
2021/06/06 12:31:25;;;;;;;;;;;22.70;99.90;;;;;;4964783;28;20353;-61
2021/06/06 12:33:55;;;;;;;;;;;22.60;99.90;;;;;;4971572;28;19931;-62
2021/06/06 12:36:25;;;;;;;;;;;22.50;99.90;;;;;;4969519;28;19934;-61
2021/06/06 12:39:18;;;;;;;;;;;22.50;99.90;;;;;;4970401;28;20294;-62
2021/06/06 12:41:51;;;;;;;;;;;22.50;99.90;;;;;;4970673;28;19961;-62
2021/06/06 12:47:22;;;;;;;;;;;22.50;99.90;;;;;;4964100;28;19933;-63
2021/06/06 12:49:53;;;;;;;;;;;22.80;99.90;;;;;;4968965;28;20350;-62
2021/06/06 12:52:23;;;;;;;;;;;22.50;99.90;;;;;;4968407;28;19926;-62
2021/06/06 12:54:51;;;;;;;;;;;22.80;99.90;;;;;;4969160;28;19972;-62
2021/06/06 12:57:20;;;;;;;;;;;22.70;99.90;;;;;;4956989;28;20024;-62
2021/06/06 12:59:48;;;;;;;;;;;22.70;99.90;;;;;;4974597;28;19941;-61
2021/06/06 13:02:17;;;;;;;;;;;22.70;99.90;;;;;;4964821;28;19957;-61
2021/06/06 13:04:46;;;;;;;;;;;22.60;99.90;;;;;;4974857;28;19930;-62
2021/06/06 13:07:21;;;;;;;;;;;22.70;99.90;;;;;;4972058;28;19965;-62
2021/06/06 13:09:50;;;;;;;;;;;22.80;99.90;;;;;;4973771;28;19934;-62
2021/06/06 13:12:23;;;;;;;;;;;22.60;99.90;;;;;;4971730;28;20326;-62
2021/06/06 13:14:57;;;;;;;;;;;22.20;99.90;;;;;;4972704;28;19934;-61
2021/06/06 13:17:27;;;;;;;;;;;22.10;99.90;;;;;;4967125;28;19930;-62
2021/06/06 13:20:05;;;;;;;;;;;21.90;99.90;;;;;;4976255;28;19933;-61
2021/06/06 13:22:34;;;;;;;;;;;22.10;99.90;;;;;;4973789;28;19926;-62
2021/06/06 13:25:15;;;;;;;;;;;22.00;99.90;;;;;;4971949;28;19933;-61
2021/06/06 13:27:43;;;;;;;;;;;22.00;99.90;;;;;;4967412;28;19938;-61
2021/06/06 13:30:16;;;;;;;;;;;21.80;99.90;;;;;;4962648;28;20550;-62
2021/06/06 13:32:51;;;;;;;;;;;21.90;99.90;;;;;;4966772;28;19934;-61
2021/06/06 13:35:19;;;;;;;;;;;21.90;99.90;;;;;;4969947;28;19952;-61
2021/06/06 13:37:49;;;;;;;;;;;22.10;99.90;;;;;;4970605;28;19926;-61
2021/06/06 13:40:18;;;;;;;;;;;22.30;99.90;;;;;;4973724;28;20007;-62
2021/06/06 13:42:46;;;;;;;;;;;22.80;99.90;;;;;;4971443;28;19930;-61
2021/06/06 13:48:10;;;;;;;;;;;23.10;99.90;;;;;;4979539;28;20310;-61
2021/06/06 13:50:41;;;;;;;;;;;23.20;99.90;;;;;;4975800;28;20002;-61
2021/06/06 13:53:15;;;;;;;;;;;23.30;99.90;;;;;;4968634;28;19927;-61
2021/06/06 13:55:42;;;;;;;;;;;23.30;99.90;;;;;;4968665;28;19934;-61
2021/06/06 13:58:10;;;;;;;;;;;23.10;99.90;;;;;;4973572;28;19981;-61
2021/06/06 14:00:39;;;;;;;;;;;22.60;99.90;;;;;;4963060;28;19965;-61
2021/06/06 14:03:08;;;;;;;;;;;22.40;99.90;;;;;;4972656;28;19969;-61
2021/06/06 14:05:36;;;;;;;;;;;22.40;99.90;;;;;;4970645;28;19937;-63
2021/06/06 14:08:04;;;;;;;;;;;22.30;99.90;;;;;;4971405;28;19937;-62
2021/06/06 14:10:35;;;;;;;;;;;22.30;99.90;;;;;;4970638;28;20473;-61
2021/06/06 14:13:03;;;;;;;;;;;22.30;99.90;;;;;;4974529;28;19926;-61
2021/06/06 14:15:31;;;;;;;;;;;22.20;99.90;;;;;;4962426;28;19977;-61
2021/06/06 14:17:59;;;;;;;;;;;22.20;99.90;;;;;;4953158;28;19981;-62
2021/06/06 14:23:20;;;;;;;;;;;22.40;99.90;;;;;;4966327;28;19926;-61
2021/06/06 14:25:49;;;;;;;;;;;22.70;99.90;;;;;;4963693;28;19933;-62
2021/06/06 14:28:19;;;;;;;;;;;22.60;99.90;;;;;;4967590;28;19943;-61
2021/06/06 14:30:47;;;;;;;;;;;23.00;99.90;;;;;;4964757;28;19961;-61
2021/06/06 14:33:16;;;;;;;;;;;23.10;99.90;;;;;;4965327;28;19966;-62
2021/06/06 14:35:44;;;;;;;;;;;23.20;99.90;;;;;;4971285;28;19926;-62
2021/06/06 14:38:12;;;;;;;;;;;23.40;99.90;;;;;;4973568;28;19926;-64
2021/06/06 14:40:41;;;;;;;;;;;23.10;99.90;;;;;;4973614;28;19926;-63
2021/06/06 14:43:12;;;;;;;;;;;22.80;99.90;;;;;;4973312;28;19981;-63
2021/06/06 14:45:42;;;;;;;;;;;22.50;99.90;;;;;;4970787;28;19926;-61
2021/06/06 14:48:11;;;;;;;;;;;22.40;99.90;;;;;;4973658;28;20013;-61
2021/06/06 14:50:40;;;;;;;;;;;22.50;99.90;;;;;;4975059;28;20331;-62
2021/06/06 14:53:09;;;;;;;;;;;22.40;99.90;;;;;;4985359;28;19926;-61
2021/06/06 14:55:37;;;;;;;;;;;22.30;99.90;;;;;;4974624;28;20345;-62
2021/06/06 14:58:21;;;;;;;;;;;22.30;99.90;;;;;;4973650;28;19930;-62